createdAt,value
2018-02-03T00:01:05.359Z,11.03
2018-02-03T00:03:32.820Z,11.67
2018-02-03T00:06:00.300Z,11.70
2018-02-03T00:08:27.796Z,11.50
2018-02-03T00:10:55.249Z,12.97
2018-02-03T00:13:24.115Z,12.53
2018-02-03T00:15:51.601Z,12.07
2018-02-03T00:18:19.158Z,11.77
2018-02-03T00:20:46.635Z,12.50
2018-02-03T00:23:14.151Z,11.60
2018-02-03T00:25:41.630Z,12.07
2018-02-03T00:28:09.098Z,11.50
2018-02-03T00:30:36.557Z,12.27
2018-02-03T00:33:04.005Z,13.17
2018-02-03T00:35:31.571Z,12.30
2018-02-03T00:37:59.053Z,12.70
2018-02-03T00:40:26.581Z,11.87
2018-02-03T00:42:54.065Z,13.37
2018-02-03T00:45:21.572Z,13.90
2018-02-03T00:47:49.090Z,13.57
2018-02-03T00:50:16.570Z,13.23
2018-02-03T00:52:45.794Z,13.33
2018-02-03T00:55:13.300Z,13.60
2018-02-03T00:57:40.766Z,14.17
2018-02-03T01:00:08.284Z,13.37
2018-02-03T01:02:35.803Z,15.23
2018-02-03T01:05:03.295Z,14.67
2018-02-03T01:07:30.810Z,13.70
2018-02-03T01:09:58.330Z,13.83
2018-02-03T01:12:25.806Z,14.27
2018-02-03T01:14:53.280Z,15.23
2018-02-03T01:17:20.755Z,14.83
2018-02-03T01:19:48.464Z,13.37
2018-02-03T01:22:15.907Z,14.50
2018-02-03T01:24:43.366Z,15.03
2018-02-03T01:27:11.181Z,14.83
2018-02-03T01:29:38.698Z,16.43
2018-02-03T01:32:06.249Z,15.77
2018-02-03T01:34:33.744Z,14.80
2018-02-03T01:37:01.209Z,13.03
2018-02-03T01:39:28.776Z,13.70
2018-02-03T01:41:56.266Z,14.73
2018-02-03T01:44:23.742Z,14.43
2018-02-03T01:46:51.243Z,14.10
2018-02-03T01:49:18.824Z,13.87
2018-02-03T01:51:46.302Z,15.67
2018-02-03T01:54:13.779Z,15.33
2018-02-03T01:56:41.249Z,16.20
2018-02-03T01:59:08.708Z,15.80
2018-02-03T02:01:36.205Z,13.97
2018-02-03T02:04:03.702Z,14.83
2018-02-03T02:06:31.174Z,14.57
2018-02-03T02:08:58.650Z,15.40
2018-02-03T02:11:26.188Z,15.50
2018-02-03T02:13:53.654Z,16.00
2018-02-03T02:16:21.116Z,14.47
2018-02-03T02:18:48.607Z,16.30
2018-02-03T02:21:16.154Z,17.57
2018-02-03T02:23:43.646Z,15.60
2018-02-03T02:26:11.189Z,16.80
2018-02-03T02:28:38.776Z,18.90
2018-02-03T02:31:06.358Z,18.43
2018-02-03T02:33:33.807Z,19.87
2018-02-03T02:36:01.265Z,20.63
2018-02-03T02:38:28.747Z,16.37
2018-02-03T02:40:56.233Z,17.30
2018-02-03T02:43:23.699Z,18.93
2018-02-03T02:45:51.297Z,15.33
2018-02-03T02:48:23.706Z,17.30
2018-02-03T02:50:51.165Z,18.80
2018-02-03T02:53:18.666Z,16.53
2018-02-03T02:55:46.160Z,17.80
2018-02-03T02:58:13.659Z,16.60
2018-02-03T03:00:41.461Z,17.13
2018-02-03T03:03:08.985Z,16.77
2018-02-03T03:05:36.460Z,16.40
2018-02-03T03:08:04.021Z,17.83
2018-02-03T03:10:31.497Z,18.20
2018-02-03T03:12:59.055Z,17.63
2018-02-03T03:15:26.523Z,19.37
2018-02-03T03:17:54.104Z,16.00
2018-02-03T03:20:22.192Z,16.47
2018-02-03T03:22:49.724Z,16.40
2018-02-03T03:25:17.244Z,16.93
2018-02-03T03:27:44.748Z,17.57
2018-02-03T03:30:12.282Z,18.27
2018-02-03T03:32:39.830Z,16.90
2018-02-03T03:35:08.003Z,17.30
2018-02-03T03:37:35.563Z,18.10
2018-02-03T03:40:03.055Z,18.17
2018-02-03T03:42:30.588Z,19.13
2018-02-03T03:44:58.080Z,18.00
2018-02-03T03:47:25.609Z,16.90
2018-02-03T03:49:53.089Z,17.93
2018-02-03T03:52:20.630Z,18.80
2018-02-03T03:54:48.098Z,20.50
2018-02-03T03:57:15.552Z,21.23
2018-02-03T03:59:43.063Z,22.97
2018-02-03T04:02:10.523Z,20.03
2018-02-03T04:04:37.986Z,19.50
2018-02-03T04:07:05.466Z,17.67
2018-02-03T04:09:32.908Z,19.13
2018-02-03T04:12:00.452Z,18.97
2018-02-03T04:14:28.105Z,19.57
2018-02-03T04:16:55.603Z,17.73
2018-02-03T04:19:23.429Z,18.00
2018-02-03T04:21:51.182Z,17.70
2018-02-03T04:24:18.712Z,18.57
2018-02-03T04:26:46.196Z,17.23
2018-02-03T04:29:13.693Z,18.37
2018-02-03T04:31:41.243Z,18.03
2018-02-03T04:34:08.724Z,19.70
2018-02-03T04:36:36.318Z,18.03
2018-02-03T04:39:03.815Z,18.90
2018-02-03T04:41:31.312Z,21.87
2018-02-03T04:43:58.856Z,19.03
2018-02-03T04:46:26.328Z,16.00
2018-02-03T04:48:53.831Z,19.83
2018-02-03T04:51:21.334Z,17.80
2018-02-03T04:53:48.822Z,16.47
2018-02-03T04:56:16.518Z,16.97
2018-02-03T04:58:44.077Z,15.23
2018-02-03T05:01:11.523Z,16.30
2018-02-03T05:03:39.074Z,14.57
2018-02-03T05:06:06.547Z,16.07
2018-02-03T05:08:34.162Z,15.53
2018-02-03T05:11:01.630Z,16.70
2018-02-03T05:13:29.089Z,14.17
2018-02-03T05:15:56.602Z,12.10
2018-02-03T05:18:24.145Z,14.30
2018-02-03T05:20:51.642Z,12.80
2018-02-03T05:23:19.300Z,13.60
2018-02-03T05:25:46.772Z,12.83
2018-02-03T05:28:14.271Z,11.47
2018-02-03T05:30:41.789Z,13.00
2018-02-03T05:33:09.273Z,11.10
2018-02-03T05:35:36.776Z,10.77
2018-02-03T05:38:04.275Z,9.60
2018-02-03T05:40:31.781Z,10.00
2018-02-03T05:42:59.371Z,10.17
2018-02-03T05:45:26.857Z,9.40
2018-02-03T05:47:54.424Z,11.47
2018-02-03T05:50:22.265Z,10.97
2018-02-03T05:52:50.991Z,13.00
2018-02-03T05:55:18.536Z,10.23
2018-02-03T05:57:46.108Z,9.33
2018-02-03T06:00:13.628Z,13.97
2018-02-03T06:02:41.164Z,10.77
2018-02-03T06:05:09.405Z,9.03
2018-02-03T06:07:36.901Z,8.73
2018-02-03T06:10:04.380Z,9.07
2018-02-03T06:12:31.850Z,8.70
2018-02-03T06:14:59.355Z,8.83
2018-02-03T06:17:27.620Z,8.60
2018-02-03T06:19:55.298Z,9.83
2018-02-03T06:22:22.754Z,8.00
2018-02-03T06:24:50.995Z,9.43
2018-02-03T06:27:18.469Z,7.87
2018-02-03T06:29:46.134Z,9.53
2018-02-03T06:32:13.723Z,8.97
2018-02-03T06:34:41.210Z,8.87
2018-02-03T06:37:08.723Z,8.70
2018-02-03T06:39:36.279Z,8.30
2018-02-03T06:42:03.750Z,8.10
2018-02-03T06:44:31.235Z,9.70
2018-02-03T06:46:58.737Z,10.37
2018-02-03T06:49:26.289Z,9.60
2018-02-03T06:51:53.790Z,9.60
2018-02-03T06:54:21.259Z,8.63
2018-02-03T06:56:48.753Z,10.10
2018-02-03T06:59:16.267Z,9.40
2018-02-03T07:01:43.767Z,7.97
2018-02-03T07:04:11.277Z,7.57
2018-02-03T07:06:38.772Z,7.70
2018-02-03T07:09:06.276Z,9.00
2018-02-03T07:11:33.802Z,8.27
2018-02-03T07:14:01.302Z,7.40
2018-02-03T07:16:28.816Z,7.40
2018-02-03T07:18:56.434Z,8.90
2018-02-03T07:21:24.125Z,8.90
2018-02-03T07:23:51.740Z,8.87
2018-02-03T07:26:19.255Z,10.40
2018-02-03T07:28:46.804Z,9.93
2018-02-03T07:31:14.344Z,15.40
2018-02-03T07:33:41.982Z,10.70
2018-02-03T07:36:09.506Z,11.33
2018-02-03T07:38:37.015Z,10.07
2018-02-03T07:41:04.469Z,12.20
2018-02-03T07:43:32.058Z,11.10
2018-02-03T07:45:59.603Z,12.20
2018-02-03T07:48:28.224Z,13.13
2018-02-03T07:50:55.698Z,12.47
2018-02-03T07:53:23.338Z,13.13
2018-02-03T07:55:50.955Z,13.50
2018-02-03T07:58:18.433Z,13.63
2018-02-03T08:00:45.982Z,14.33
2018-02-03T08:03:13.480Z,14.93
2018-02-03T08:05:40.986Z,14.57
2018-02-03T08:08:08.510Z,14.77
2018-02-03T08:10:36.033Z,14.67
2018-02-03T08:13:03.754Z,14.77
2018-02-03T08:15:31.400Z,14.97
2018-02-03T08:17:58.957Z,14.97
2018-02-03T08:20:26.433Z,14.17
2018-02-03T08:22:53.948Z,12.47
2018-02-03T08:25:21.440Z,14.13
2018-02-03T08:27:48.952Z,14.87
2018-02-03T08:30:16.455Z,13.97
2018-02-03T08:32:43.927Z,13.47
2018-02-03T08:35:11.511Z,16.70
2018-02-03T08:37:39.088Z,13.87
2018-02-03T08:40:06.578Z,13.40
2018-02-03T08:42:34.106Z,14.07
2018-02-03T08:45:01.567Z,15.93
2018-02-03T08:47:29.133Z,15.93
2018-02-03T08:49:56.678Z,13.73
2018-02-03T08:52:24.249Z,14.70
2018-02-03T08:54:51.755Z,14.33
2018-02-03T08:57:19.238Z,13.03
2018-02-03T08:59:46.831Z,13.80
2018-02-03T09:02:14.359Z,13.43
2018-02-03T09:04:41.846Z,14.43
2018-02-03T09:07:09.531Z,15.57
2018-02-03T09:09:37.059Z,16.67
2018-02-03T09:12:06.319Z,15.00
2018-02-03T09:14:34.016Z,16.03
2018-02-03T09:17:01.527Z,12.87
2018-02-03T09:19:29.172Z,14.33
2018-02-03T09:21:56.746Z,13.97
2018-02-03T09:24:24.298Z,16.70
2018-02-03T09:26:51.817Z,15.40
2018-02-03T09:29:19.498Z,14.97
2018-02-03T09:31:47.104Z,12.40
2018-02-03T09:34:14.669Z,15.17
2018-02-03T09:36:42.194Z,13.97
2018-02-03T09:39:09.731Z,14.37
2018-02-03T09:41:37.411Z,14.73
2018-02-03T09:44:04.952Z,16.03
2018-02-03T09:46:32.534Z,15.13
2018-02-03T09:49:00.077Z,14.80
2018-02-03T09:51:27.581Z,15.13
2018-02-03T09:53:55.196Z,16.63
2018-02-03T09:56:22.722Z,14.73
2018-02-03T09:58:50.267Z,19.30
2018-02-03T10:01:17.782Z,16.07
2018-02-03T10:03:45.632Z,18.77
2018-02-03T10:06:13.264Z,18.13
2018-02-03T10:08:41.773Z,14.10
2018-02-03T10:11:09.238Z,17.30
2018-02-03T10:13:36.925Z,16.83
2018-02-03T10:16:04.487Z,16.63
2018-02-03T10:18:32.051Z,17.23
2018-02-03T10:20:59.740Z,15.47
2018-02-03T10:23:27.392Z,17.33
2018-02-03T10:25:54.941Z,16.20
2018-02-03T10:28:22.399Z,16.70
2018-02-03T10:30:49.927Z,17.23
2018-02-03T10:33:17.735Z,16.37
2018-02-03T10:35:45.379Z,15.17
2018-02-03T10:38:12.918Z,16.57
2018-02-03T10:40:40.436Z,15.70
2018-02-03T10:43:07.935Z,19.07
2018-02-03T10:45:35.472Z,18.60
2018-02-03T10:48:03.118Z,14.70
2018-02-03T10:50:30.590Z,15.07
2018-02-03T10:52:58.101Z,16.63
2018-02-03T10:55:25.599Z,15.97
2018-02-03T10:57:53.058Z,15.30
2018-02-03T11:00:21.104Z,18.23
2018-02-03T11:02:48.569Z,18.43
2018-02-03T11:05:16.076Z,13.33
2018-02-03T11:07:43.612Z,16.30
2018-02-03T11:10:11.171Z,16.27
2018-02-03T11:12:38.694Z,15.27
2018-02-03T11:15:06.236Z,14.93
2018-02-03T11:17:33.815Z,13.93
2018-02-03T11:20:01.285Z,15.20
2018-02-03T11:22:28.749Z,14.00
2018-02-03T11:24:56.252Z,13.03
2018-02-03T11:27:23.889Z,12.93
2018-02-03T11:29:51.609Z,14.90
2018-02-03T11:32:19.187Z,15.57
2018-02-03T11:34:46.655Z,14.37
2018-02-03T11:37:14.158Z,13.07
2018-02-03T11:39:41.806Z,13.80
2018-02-03T11:42:09.326Z,12.47
2018-02-03T11:44:36.815Z,14.03
2018-02-03T11:47:04.398Z,13.70
2018-02-03T11:49:32.093Z,13.13
2018-02-03T11:51:59.592Z,12.70
2018-02-03T11:54:27.414Z,14.43
2018-02-03T11:56:54.920Z,12.17
2018-02-03T11:59:22.450Z,11.77
2018-02-03T12:01:49.951Z,12.63
2018-02-03T12:04:17.464Z,12.40
2018-02-03T12:06:45.026Z,15.03
2018-02-03T12:09:12.542Z,12.93
2018-02-03T12:11:40.316Z,13.27
2018-02-03T12:14:07.796Z,13.60
2018-02-03T12:16:35.730Z,10.93
2018-02-03T12:19:03.350Z,12.40
2018-02-03T12:21:30.863Z,14.57
2018-02-03T12:23:59.157Z,11.77
2018-02-03T12:26:26.744Z,14.40
2018-02-03T12:28:54.441Z,11.73
2018-02-03T12:31:22.011Z,10.30
2018-02-03T12:33:49.508Z,11.10
2018-02-03T12:36:17.949Z,11.20
2018-02-03T12:38:45.474Z,11.37
2018-02-03T12:41:13.121Z,9.53
2018-02-03T12:43:40.713Z,9.17
2018-02-03T12:46:08.247Z,9.37
2018-02-03T12:48:35.881Z,10.20
2018-02-03T12:51:03.392Z,8.90
2018-02-03T12:53:31.061Z,9.13
2018-02-03T12:55:58.673Z,10.53
2018-02-03T12:58:31.387Z,11.90
2018-02-03T13:00:58.922Z,10.27
2018-02-03T13:03:26.551Z,10.87
2018-02-03T13:05:54.138Z,12.43
2018-02-03T13:08:21.596Z,10.43
2018-02-03T13:10:49.192Z,11.37
2018-02-03T13:13:16.755Z,11.80
2018-02-03T13:15:44.296Z,11.87
2018-02-03T13:18:11.881Z,11.87
2018-02-03T13:20:39.422Z,10.87
2018-02-03T13:23:06.998Z,10.33
2018-02-03T13:25:34.645Z,10.83
2018-02-03T13:28:02.280Z,11.53
2018-02-03T13:30:29.823Z,12.33
2018-02-03T13:32:57.332Z,12.77
2018-02-03T13:35:24.925Z,10.97
2018-02-03T13:37:52.532Z,9.63
2018-02-03T13:40:20.104Z,11.67
2018-02-03T13:42:47.626Z,11.23
2018-02-03T13:45:15.127Z,10.67
2018-02-03T13:47:42.836Z,10.57
2018-02-03T13:50:10.320Z,15.43
2018-02-03T13:52:37.956Z,13.07
2018-02-03T13:55:05.507Z,12.00
2018-02-03T13:57:33.080Z,12.50
2018-02-03T14:00:00.685Z,11.63
2018-02-03T14:02:28.229Z,10.33
2018-02-03T14:04:55.789Z,14.67
2018-02-03T14:07:23.283Z,12.10
2018-02-03T14:09:50.876Z,12.07
2018-02-03T14:12:18.466Z,12.63
2018-02-03T14:14:46.192Z,12.23
2018-02-03T14:17:13.673Z,9.13
2018-02-03T14:19:41.149Z,13.27
2018-02-03T14:22:08.810Z,11.53
2018-02-03T14:24:41.859Z,12.10
2018-02-03T14:27:09.460Z,11.77
2018-02-03T14:29:37.279Z,15.47
2018-02-03T14:32:04.988Z,12.50
2018-02-03T14:34:32.543Z,13.57
2018-02-03T14:37:00.068Z,12.87
2018-02-03T14:39:27.686Z,12.77
2018-02-03T14:41:55.334Z,12.73
2018-02-03T14:44:22.861Z,11.07
2018-02-03T14:46:50.383Z,13.47
2018-02-03T14:49:17.933Z,11.47
2018-02-03T14:51:45.518Z,12.10
2018-02-03T14:54:12.998Z,10.83
2018-02-03T14:56:40.514Z,13.00
2018-02-03T14:59:07.995Z,12.40
2018-02-03T15:01:35.522Z,12.87
2018-02-03T15:04:03.369Z,10.20
2018-02-03T15:06:30.879Z,11.17
2018-02-03T15:08:58.435Z,12.23
2018-02-03T15:11:26.080Z,12.07
2018-02-03T15:13:53.639Z,15.33
2018-02-03T15:16:21.289Z,11.00
2018-02-03T15:18:49.115Z,12.37
2018-02-03T15:21:16.614Z,11.03
2018-02-03T15:23:44.122Z,10.73
2018-02-03T15:26:11.705Z,11.07
2018-02-03T15:28:39.268Z,11.97
2018-02-03T15:31:06.822Z,10.60
2018-02-03T15:33:34.389Z,9.00
2018-02-03T15:36:01.939Z,9.67
2018-02-03T15:38:29.452Z,13.50
2018-02-03T15:40:57.019Z,9.50
2018-02-03T15:43:26.222Z,10.73
2018-02-03T15:45:53.767Z,9.47
2018-02-03T15:48:21.418Z,10.60
2018-02-03T15:50:49.179Z,8.67
2018-02-03T15:53:16.761Z,11.53
2018-02-03T15:55:45.200Z,8.00
2018-02-03T15:58:12.758Z,8.03
2018-02-03T16:00:40.353Z,9.37
2018-02-03T16:03:07.878Z,10.70
2018-02-03T16:05:35.396Z,10.03
2018-02-03T16:08:03.085Z,7.80
2018-02-03T16:10:30.625Z,7.80
2018-02-03T16:12:58.131Z,11.30
2018-02-03T16:15:25.739Z,9.33
2018-02-03T16:17:53.228Z,8.50
2018-02-03T16:20:20.818Z,10.07
2018-02-03T16:22:48.432Z,8.73
2018-02-03T16:25:15.964Z,8.40
2018-02-03T16:27:43.667Z,7.80
2018-02-03T16:30:11.155Z,9.77
2018-02-03T16:32:38.717Z,37.73
2018-02-03T16:35:06.358Z,24.83
2018-02-03T16:37:34.032Z,16.27
2018-02-03T16:40:01.613Z,12.23
2018-02-03T16:42:29.313Z,11.43
2018-02-03T16:44:56.958Z,12.80
2018-02-03T16:47:24.740Z,12.60
2018-02-03T16:49:52.251Z,11.67
2018-02-03T16:52:19.716Z,10.90
2018-02-03T16:54:47.267Z,9.47
2018-02-03T16:57:14.804Z,9.67
2018-02-03T16:59:42.320Z,9.37
2018-02-03T17:02:09.949Z,11.10
2018-02-03T17:04:37.839Z,9.97
2018-02-03T17:07:05.286Z,9.43
2018-02-03T17:09:32.817Z,10.13
2018-02-03T17:12:00.308Z,11.67
2018-02-03T17:14:27.785Z,15.27
2018-02-03T17:16:55.366Z,13.50
2018-02-03T17:19:22.879Z,12.63
2018-02-03T17:21:50.373Z,13.13
2018-02-03T17:24:18.028Z,12.43
2018-02-03T17:26:45.557Z,13.93
2018-02-03T17:29:13.280Z,13.57
2018-02-03T17:31:40.810Z,13.97
2018-02-03T17:34:08.279Z,14.93
2018-02-03T17:36:41.323Z,14.10
2018-02-03T17:39:13.611Z,16.83
2018-02-03T17:41:41.250Z,14.07
2018-02-03T17:44:08.728Z,15.90
2018-02-03T17:46:41.927Z,15.87
2018-02-03T17:49:09.602Z,14.47
2018-02-03T17:51:37.124Z,18.30
2018-02-03T17:54:04.633Z,16.70
2018-02-03T17:56:37.914Z,17.33
2018-02-03T17:59:05.464Z,19.07
2018-02-03T18:01:33.103Z,21.93
2018-02-03T18:04:00.583Z,20.97
2018-02-03T18:06:33.829Z,18.57
2018-02-03T18:09:01.357Z,19.70
2018-02-03T18:11:29.029Z,18.63
2018-02-03T18:13:57.261Z,18.10
2018-02-03T18:16:26.950Z,17.77
2018-02-03T18:18:54.551Z,18.07
2018-02-03T18:21:22.220Z,18.20
2018-02-03T18:23:49.977Z,20.00
2018-02-03T18:26:18.443Z,22.40
2018-02-03T18:28:45.948Z,18.33
2018-02-03T18:31:13.637Z,19.43
2018-02-03T18:33:41.334Z,19.53
2018-02-03T18:36:08.842Z,21.07
2018-02-03T18:38:36.342Z,16.00
2018-02-03T18:41:04.133Z,17.10
2018-02-03T18:43:31.792Z,19.20
2018-02-03T18:45:59.339Z,18.23
2018-02-03T18:48:26.896Z,18.47
2018-02-03T18:50:54.539Z,17.27
2018-02-03T18:53:22.224Z,18.30
2018-02-03T18:55:49.733Z,24.70
2018-02-03T18:58:17.360Z,21.60
2018-02-03T19:00:45.338Z,24.10
2018-02-03T19:03:12.987Z,20.47
2018-02-03T19:05:40.510Z,21.23
2018-02-03T19:08:08.303Z,22.37
2018-02-03T19:10:35.887Z,20.40
2018-02-03T19:13:03.462Z,21.53
2018-02-03T19:15:31.247Z,20.93
2018-02-03T19:17:58.894Z,20.37
2018-02-03T19:20:26.479Z,22.73
2018-02-03T19:22:54.156Z,25.40
2018-02-03T19:25:21.901Z,24.67
2018-02-03T19:27:49.475Z,22.50
2018-02-03T19:30:17.040Z,19.93
2018-02-03T19:32:44.524Z,22.03
2018-02-03T19:35:12.237Z,28.23
2018-02-03T19:37:39.826Z,22.03
2018-02-03T19:40:07.463Z,24.03
2018-02-03T19:42:35.126Z,23.07
2018-02-03T19:45:02.753Z,21.70
2018-02-03T19:47:30.230Z,22.10
2018-02-03T19:49:57.921Z,19.07
2018-02-03T19:52:25.514Z,21.10
2018-02-03T19:54:53.300Z,22.40
2018-02-03T19:57:20.903Z,23.17
2018-02-03T19:59:48.431Z,22.00
2018-02-03T20:02:16.007Z,24.07
2018-02-03T20:04:43.524Z,23.67
2018-02-03T20:07:11.175Z,23.87
2018-02-03T20:09:38.797Z,21.57
2018-02-03T20:12:06.379Z,22.20
2018-02-03T20:14:33.979Z,16.40
2018-02-03T20:17:01.511Z,17.80
2018-02-03T20:19:29.156Z,21.87
2018-02-03T20:21:56.689Z,17.83
2018-02-03T20:24:24.420Z,17.57
2018-02-03T20:26:51.940Z,16.87
2018-02-03T20:29:19.586Z,16.47
2018-02-03T20:31:47.236Z,16.47
2018-02-03T20:34:14.831Z,16.80
2018-02-03T20:36:42.356Z,14.80
2018-02-03T20:39:09.843Z,16.63
2018-02-03T20:41:37.582Z,14.00
2018-02-03T20:44:05.573Z,13.33
2018-02-03T20:46:33.226Z,15.33
2018-02-03T20:49:00.709Z,12.60
2018-02-03T20:51:28.582Z,12.47
2018-02-03T20:53:56.611Z,16.87
2018-02-03T20:56:24.193Z,17.17
2018-02-03T21:01:44.094Z,12.83
2018-02-03T21:04:11.722Z,12.33
2018-02-03T21:06:40.078Z,11.53
2018-02-03T21:09:26.940Z,13.73
2018-02-03T21:11:54.574Z,13.87
2018-02-03T21:14:22.322Z,15.93
2018-02-03T21:16:49.938Z,15.80
2018-02-03T21:19:17.446Z,13.17
2018-02-03T21:21:45.082Z,13.63
2018-02-03T21:24:12.694Z,16.83
2018-02-03T21:26:40.445Z,15.77
2018-02-03T21:29:08.054Z,15.80
2018-02-03T21:31:35.590Z,16.53
2018-02-03T21:34:03.314Z,18.30
2018-02-03T21:36:30.868Z,15.80
2018-02-03T21:38:58.352Z,15.37
2018-02-03T21:41:25.857Z,17.63
2018-02-03T21:43:53.533Z,15.03
2018-02-03T21:46:21.032Z,15.10
2018-02-03T21:48:48.596Z,16.40
2018-02-03T21:51:16.235Z,17.37
2018-02-03T21:53:43.814Z,17.67
2018-02-03T21:56:11.461Z,19.00
2018-02-03T21:58:39.074Z,17.33
2018-02-03T22:01:06.632Z,17.63
2018-02-03T22:03:34.265Z,18.80
2018-02-03T22:06:01.832Z,21.10
2018-02-03T22:08:29.603Z,18.17
2018-02-03T22:10:57.163Z,19.10
2018-02-03T22:13:24.828Z,17.70
2018-02-03T22:15:52.430Z,19.50
2018-02-03T22:18:20.041Z,19.10
2018-02-03T22:20:47.605Z,19.87
2018-02-03T22:23:15.157Z,18.53
2018-02-03T22:25:42.713Z,19.33
2018-02-03T22:28:10.213Z,19.50
2018-02-03T22:30:37.760Z,20.60
2018-02-03T22:33:05.367Z,20.40
2018-02-03T22:35:32.889Z,18.50
2018-02-03T22:38:00.407Z,19.70
2018-02-03T22:40:27.931Z,19.90
2018-02-03T22:42:55.405Z,18.30
2018-02-03T22:45:22.956Z,17.67
2018-02-03T22:47:50.428Z,17.37
2018-02-03T22:50:18.026Z,18.37
2018-02-03T22:52:45.811Z,19.37
2018-02-03T22:55:15.489Z,18.40
2018-02-03T22:57:43.004Z,20.07
2018-02-03T23:00:18.727Z,18.13
2018-02-03T23:02:51.805Z,20.13
2018-02-03T23:05:19.314Z,18.07
2018-02-03T23:07:46.877Z,18.43
2018-02-03T23:10:14.450Z,20.90
2018-02-03T23:12:42.008Z,19.80
2018-02-03T23:15:09.513Z,21.30
2018-02-03T23:17:37.032Z,20.67
2018-02-03T23:20:05.263Z,20.53
2018-02-03T23:22:32.903Z,17.63
2018-02-03T23:25:00.383Z,17.73
2018-02-03T23:27:27.858Z,19.67
2018-02-03T23:29:55.323Z,19.17
2018-02-03T23:32:23.655Z,17.23
2018-02-03T23:34:51.364Z,21.20
2018-02-03T23:37:18.931Z,18.23
2018-02-03T23:39:46.412Z,19.97
2018-02-03T23:42:13.898Z,19.73
2018-02-03T23:44:41.437Z,23.83
2018-02-03T23:47:08.977Z,18.00
2018-02-03T23:49:36.489Z,23.83
2018-02-03T23:52:03.988Z,18.17
2018-02-03T23:54:31.490Z,20.70
2018-02-03T23:56:58.957Z,17.80
2018-02-03T23:59:26.498Z,20.63
